Time;durP1;ratioP1;P1;durP2;ratioP2;P2;SDS_P1;SDS_P2;PMS_P1;PMS_P2;Temp;Humidity;BMP_temperature;BMP_pressure;BME280_temperature;BME280_humidity;BME280_pressure;Samples;Min_cycle;Max_cycle;Signal;HPM_P1;HPM_P2
2023/07/13 00:01:38;;;;;;;62.20;44.33;;;;;;;;;;5000436;28;20077;-64
2023/07/13 00:04:05;;;;;;;59.97;40.33;;;;;;;;;;4996861;28;20041;-68
2023/07/13 00:06:32;;;;;;;58.72;39.13;;;;;;;;;;4998888;28;20030;-63
2023/07/13 00:08:59;;;;;;;53.17;36.83;;;;;;;;;;4989603;28;20050;-64
2023/07/13 00:11:26;;;;;;;51.80;36.75;;;;;;;;;;4987210;28;20127;-64
2023/07/13 00:13:53;;;;;;;53.67;36.50;;;;;;;;;;4987444;28;20045;-64
2023/07/13 00:16:19;;;;;;;50.38;36.78;;;;;;;;;;4987900;28;20041;-65
2023/07/13 00:18:47;;;;;;;57.72;39.47;;;;;;;;;;4983919;28;20049;-64
2023/07/13 00:21:14;;;;;;;55.03;38.05;;;;;;;;;;4987356;28;20038;-63
2023/07/13 00:23:42;;;;;;;55.33;38.88;;;;;;;;;;4985460;28;20399;-63
2023/07/13 00:26:10;;;;;;;59.08;39.67;;;;;;;;;;4985083;28;21043;-64
2023/07/13 00:28:37;;;;;;;54.83;39.17;;;;;;;;;;4985255;28;20053;-65
2023/07/13 00:31:04;;;;;;;56.40;39.08;;;;;;;;;;4985749;28;20053;-66
2023/07/13 00:33:31;;;;;;;55.70;37.83;;;;;;;;;;4982625;28;21135;-64
2023/07/13 00:35:57;;;;;;;55.70;40.03;;;;;;;;;;4984343;28;20053;-64
2023/07/13 00:38:24;;;;;;;61.85;40.58;;;;;;;;;;4984092;28;20046;-67
2023/07/13 00:40:51;;;;;;;57.83;40.13;;;;;;;;;;4983937;28;20430;-63
2023/07/13 00:43:18;;;;;;;57.70;40.55;;;;;;;;;;4984231;28;20433;-63
2023/07/13 00:45:45;;;;;;;53.65;37.00;;;;;;;;;;4984516;28;20045;-61
2023/07/13 00:48:13;;;;;;;54.67;37.40;;;;;;;;;;4983136;28;20097;-62
2023/07/13 00:50:40;;;;;;;54.97;36.30;;;;;;;;;;4995712;28;20042;-63
2023/07/13 00:53:08;;;;;;;52.80;36.47;;;;;;;;;;4998162;28;20046;-62
2023/07/13 00:55:35;;;;;;;52.13;35.72;;;;;;;;;;4986367;28;20041;-63
2023/07/13 00:58:04;;;;;;;50.47;34.38;;;;;;;;;;4988114;28;20475;-61
2023/07/13 01:00:31;;;;;;;46.33;33.53;;;;;;;;;;4987420;28;20043;-64
2023/07/13 01:02:57;;;;;;;45.33;31.88;;;;;;;;;;4989094;28;20108;-60
2023/07/13 01:05:25;;;;;;;42.55;28.83;;;;;;;;;;4986164;28;20125;-61
2023/07/13 01:07:52;;;;;;;38.67;26.95;;;;;;;;;;4986099;28;20038;-60
2023/07/13 01:10:21;;;;;;;37.85;25.85;;;;;;;;;;4988672;28;20510;-64
2023/07/13 01:12:48;;;;;;;38.55;24.73;;;;;;;;;;4996515;28;20072;-63
2023/07/13 01:15:37;;;;;;;41.17;25.45;;;;;;;;;;4994769;28;20041;-64
2023/07/13 01:18:04;;;;;;;32.53;23.48;;;;;;;;;;5000365;28;20113;-61
2023/07/13 01:20:35;;;;;;;33.35;22.30;;;;;;;;;;4997292;28;20041;-63
2023/07/13 01:23:03;;;;;;;34.20;23.27;;;;;;;;;;4997584;28;20062;-63
2023/07/13 01:25:30;;;;;;;36.15;24.08;;;;;;;;;;4996881;28;20516;-64
2023/07/13 01:27:57;;;;;;;38.40;23.80;;;;;;;;;;4993842;28;20037;-63
2023/07/13 01:30:24;;;;;;;34.78;22.23;;;;;;;;;;4993060;28;20042;-62
2023/07/13 01:32:50;;;;;;;30.35;20.58;;;;;;;;;;4990541;28;20145;-61
2023/07/13 01:35:17;;;;;;;26.48;18.40;;;;;;;;;;4989530;28;20053;-61
2023/07/13 01:37:44;;;;;;;28.92;19.60;;;;;;;;;;4988417;28;20442;-62
2023/07/13 01:40:12;;;;;;;27.95;19.52;;;;;;;;;;4990821;28;20045;-64
2023/07/13 01:42:38;;;;;;;29.30;19.85;;;;;;;;;;4989601;28;20107;-61
2023/07/13 01:45:06;;;;;;;29.00;19.67;;;;;;;;;;4989619;28;20140;-61
2023/07/13 01:47:32;;;;;;;27.67;19.80;;;;;;;;;;4990705;28;20046;-61
2023/07/13 01:49:59;;;;;;;31.60;20.25;;;;;;;;;;4991668;28;20085;-62
2023/07/13 01:52:25;;;;;;;30.15;20.33;;;;;;;;;;4990526;28;20037;-61
2023/07/13 01:54:52;;;;;;;26.60;18.60;;;;;;;;;;4988151;28;20057;-61
2023/07/13 01:57:19;;;;;;;28.00;18.83;;;;;;;;;;4989768;28;20045;-62
2023/07/13 01:59:45;;;;;;;21.65;14.60;;;;;;;;;;4985886;28;20034;-63
2023/07/13 02:02:12;;;;;;;18.20;12.77;;;;;;;;;;4988065;28;20366;-62
2023/07/13 02:04:38;;;;;;;19.90;12.55;;;;;;;;;;5002097;28;20629;-61
2023/07/13 02:07:05;;;;;;;17.52;12.23;;;;;;;;;;4988056;28;20037;-62
2023/07/13 02:09:32;;;;;;;17.90;12.60;;;;;;;;;;4986945;28;20483;-62
2023/07/13 02:11:58;;;;;;;16.92;10.88;;;;;;;;;;4990037;28;20037;-61
2023/07/13 02:14:25;;;;;;;14.20;10.27;;;;;;;;;;4986917;28;20100;-61
2023/07/13 02:16:52;;;;;;;14.85;9.85;;;;;;;;;;4989053;28;20054;-62
2023/07/13 02:19:18;;;;;;;13.98;9.63;;;;;;;;;;4990123;28;20069;-62
2023/07/13 02:21:45;;;;;;;13.50;9.90;;;;;;;;;;4987705;28;20045;-63
2023/07/13 02:24:17;;;;;;;14.30;9.25;;;;;;;;;;4986582;28;20864;-63
2023/07/13 02:26:44;;;;;;;15.05;10.02;;;;;;;;;;4988010;28;20056;-62
2023/07/13 02:29:11;;;;;;;14.18;9.57;;;;;;;;;;4989876;28;20053;-62
2023/07/13 02:31:37;;;;;;;15.40;9.82;;;;;;;;;;4987765;28;20064;-61
2023/07/13 02:34:04;;;;;;;14.68;9.15;;;;;;;;;;4987873;28;20048;-60
2023/07/13 02:36:32;;;;;;;12.75;8.82;;;;;;;;;;4988634;28;20124;-63
2023/07/13 02:39:01;;;;;;;13.52;8.30;;;;;;;;;;4987935;28;20072;-63
2023/07/13 02:41:28;;;;;;;14.63;8.32;;;;;;;;;;4986338;28;20045;-60
2023/07/13 02:44:02;;;;;;;15.10;8.75;;;;;;;;;;4985930;28;21052;-62
2023/07/13 02:46:29;;;;;;;13.95;9.43;;;;;;;;;;4990132;28;20045;-62
2023/07/13 02:48:56;;;;;;;14.07;8.98;;;;;;;;;;4988250;28;20101;-63
2023/07/13 02:51:22;;;;;;;15.27;9.45;;;;;;;;;;4991098;28;20038;-63
2023/07/13 02:53:49;;;;;;;15.07;9.05;;;;;;;;;;4987947;28;20042;-63
2023/07/13 02:56:16;;;;;;;14.10;9.00;;;;;;;;;;4987240;28;20486;-64
2023/07/13 02:58:42;;;;;;;14.77;9.07;;;;;;;;;;4986800;28;20045;-60
2023/07/13 03:01:10;;;;;;;14.30;8.95;;;;;;;;;;4988051;28;20034;-60
2023/07/13 03:03:37;;;;;;;15.35;9.48;;;;;;;;;;4987869;28;20052;-62
2023/07/13 03:06:05;;;;;;;14.25;9.38;;;;;;;;;;4987789;28;20041;-61
2023/07/13 03:08:32;;;;;;;13.68;9.60;;;;;;;;;;4986479;28;20084;-61
2023/07/13 03:11:02;;;;;;;16.85;9.70;;;;;;;;;;4991750;28;20047;-62
2023/07/13 03:13:28;;;;;;;13.65;9.10;;;;;;;;;;4987170;28;20533;-61
2023/07/13 03:15:55;;;;;;;13.23;9.45;;;;;;;;;;4988355;28;21207;-61
2023/07/13 03:18:22;;;;;;;15.30;9.55;;;;;;;;;;4986966;28;20050;-63
2023/07/13 03:20:52;;;;;;;14.52;9.32;;;;;;;;;;4986342;28;20034;-64
2023/07/13 03:23:19;;;;;;;14.20;9.73;;;;;;;;;;4985617;28;20037;-63
2023/07/13 03:25:46;;;;;;;17.30;10.43;;;;;;;;;;4984935;28;20038;-63
2023/07/13 03:28:13;;;;;;;16.65;10.32;;;;;;;;;;4987982;28;20057;-64
2023/07/13 03:30:40;;;;;;;23.63;11.88;;;;;;;;;;4987038;28;20515;-63
2023/07/13 03:33:06;;;;;;;17.83;11.07;;;;;;;;;;4984830;28;20363;-62
2023/07/13 03:35:33;;;;;;;19.50;12.30;;;;;;;;;;4985152;28;20069;-64
2023/07/13 03:38:00;;;;;;;19.33;12.15;;;;;;;;;;4984978;28;20502;-64
2023/07/13 03:40:28;;;;;;;20.00;12.10;;;;;;;;;;4986337;28;20046;-62
2023/07/13 03:42:55;;;;;;;22.88;12.63;;;;;;;;;;4986853;28;20871;-63
2023/07/13 03:45:22;;;;;;;20.30;12.45;;;;;;;;;;4986239;28;20162;-63
2023/07/13 03:47:48;;;;;;;18.98;12.38;;;;;;;;;;4986007;28;20103;-64
2023/07/13 03:50:15;;;;;;;17.95;12.07;;;;;;;;;;4985388;28;20048;-62
2023/07/13 03:52:41;;;;;;;21.02;12.60;;;;;;;;;;4980507;28;20305;-60
2023/07/13 03:55:08;;;;;;;20.55;13.07;;;;;;;;;;4984082;28;20109;-62
2023/07/13 03:57:35;;;;;;;17.95;12.55;;;;;;;;;;4984373;28;20062;-61
2023/07/13 04:00:02;;;;;;;19.27;12.77;;;;;;;;;;4985982;28;20044;-61
2023/07/13 04:02:28;;;;;;;19.60;12.98;;;;;;;;;;4986752;28;20470;-61
2023/07/13 04:04:55;;;;;;;21.90;14.00;;;;;;;;;;4994995;28;20598;-63
2023/07/13 04:07:21;;;;;;;21.08;13.40;;;;;;;;;;4998475;28;20153;-61
2023/07/13 04:09:48;;;;;;;20.02;13.23;;;;;;;;;;4996439;28;20800;-61
2023/07/13 04:12:15;;;;;;;19.70;12.95;;;;;;;;;;4997710;28;20120;-62
2023/07/13 04:14:41;;;;;;;20.85;13.45;;;;;;;;;;4996463;28;20092;-61
2023/07/13 04:17:08;;;;;;;19.45;13.93;;;;;;;;;;4996330;28;20109;-62
2023/07/13 04:19:34;;;;;;;21.05;13.50;;;;;;;;;;4996260;28;20037;-62
2023/07/13 04:22:01;;;;;;;18.90;12.30;;;;;;;;;;4996009;28;20986;-63
2023/07/13 04:24:28;;;;;;;22.77;14.35;;;;;;;;;;4993011;28;20057;-63
2023/07/13 04:26:59;;;;;;;21.88;13.60;;;;;;;;;;4994679;28;20042;-61
2023/07/13 04:29:25;;;;;;;27.38;14.02;;;;;;;;;;4993521;28;20058;-63
2023/07/13 04:31:52;;;;;;;20.55;13.73;;;;;;;;;;4995748;28;20429;-60
2023/07/13 04:34:19;;;;;;;20.60;13.25;;;;;;;;;;4993841;28;20391;-62
2023/07/13 04:36:45;;;;;;;21.65;14.13;;;;;;;;;;4997308;28;20033;-63
2023/07/13 04:39:12;;;;;;;22.15;14.15;;;;;;;;;;4998469;28;20038;-64
2023/07/13 04:41:39;;;;;;;21.45;13.70;;;;;;;;;;4996285;28;20041;-64
2023/07/13 04:44:05;;;;;;;20.15;13.25;;;;;;;;;;4997072;28;20069;-62
2023/07/13 04:46:32;;;;;;;20.95;13.27;;;;;;;;;;4997525;28;20057;-61
2023/07/13 04:48:59;;;;;;;21.88;13.52;;;;;;;;;;4994222;28;20211;-64
2023/07/13 04:51:26;;;;;;;21.33;13.27;;;;;;;;;;4996505;28;20029;-64
2023/07/13 04:53:53;;;;;;;20.08;13.63;;;;;;;;;;4996144;28;20038;-63
2023/07/13 04:56:19;;;;;;;21.40;13.50;;;;;;;;;;4994538;28;20073;-63
2023/07/13 04:58:46;;;;;;;22.08;14.05;;;;;;;;;;4995235;28;20042;-64
2023/07/13 05:01:13;;;;;;;19.60;12.50;;;;;;;;;;4996432;28;20049;-61
2023/07/13 05:03:40;;;;;;;22.77;14.45;;;;;;;;;;4995159;28;20049;-64
2023/07/13 05:06:09;;;;;;;25.88;14.85;;;;;;;;;;4995836;28;20048;-64
2023/07/13 05:08:36;;;;;;;21.60;13.57;;;;;;;;;;4993186;28;20408;-60
2023/07/13 05:11:04;;;;;;;23.15;13.10;;;;;;;;;;4994430;28;20038;-63
2023/07/13 05:13:31;;;;;;;21.02;12.65;;;;;;;;;;4993676;28;20046;-66
2023/07/13 05:16:02;;;;;;;20.60;13.30;;;;;;;;;;4994235;28;20038;-60
2023/07/13 05:18:29;;;;;;;20.35;13.10;;;;;;;;;;4995428;28;20096;-61
2023/07/13 05:21:03;;;;;;;20.55;12.80;;;;;;;;;;4995930;28;20096;-64
2023/07/13 05:23:29;;;;;;;20.92;13.25;;;;;;;;;;4995130;28;20049;-63
2023/07/13 05:25:57;;;;;;;18.88;12.82;;;;;;;;;;4994863;28;20196;-61
2023/07/13 05:28:23;;;;;;;18.75;12.20;;;;;;;;;;4995029;28;20092;-66
2023/07/13 05:30:50;;;;;;;17.35;12.02;;;;;;;;;;4993769;28;20049;-64
2023/07/13 05:33:17;;;;;;;17.73;12.18;;;;;;;;;;4995357;28;20042;-64
2023/07/13 05:35:44;;;;;;;19.95;12.70;;;;;;;;;;4993795;28;20093;-63
2023/07/13 05:38:10;;;;;;;16.77;11.23;;;;;;;;;;4994642;28;21714;-65
2023/07/13 05:40:37;;;;;;;18.90;11.73;;;;;;;;;;4995739;28;20034;-63
2023/07/13 05:43:03;;;;;;;17.70;11.75;;;;;;;;;;4998621;28;20553;-63
2023/07/13 05:45:30;;;;;;;17.25;11.32;;;;;;;;;;4995182;28;20487;-64
2023/07/13 05:47:57;;;;;;;21.35;12.20;;;;;;;;;;4991049;28;20053;-65
2023/07/13 05:50:23;;;;;;;20.27;12.30;;;;;;;;;;4999107;28;21011;-62
2023/07/13 05:52:50;;;;;;;17.88;12.00;;;;;;;;;;4997774;28;20709;-64
2023/07/13 05:55:17;;;;;;;19.42;12.27;;;;;;;;;;4989795;28;20037;-63
2023/07/13 05:57:44;;;;;;;18.58;11.57;;;;;;;;;;4996315;28;20057;-63
2023/07/13 06:00:11;;;;;;;22.75;13.13;;;;;;;;;;4997282;28;20030;-63
2023/07/13 06:02:37;;;;;;;22.08;13.73;;;;;;;;;;4996796;28;20034;-63
2023/07/13 06:05:04;;;;;;;20.05;13.02;;;;;;;;;;4997381;28;20049;-63
2023/07/13 06:07:31;;;;;;;21.80;12.75;;;;;;;;;;4990848;28;20042;-61
2023/07/13 06:09:59;;;;;;;20.70;13.45;;;;;;;;;;4998668;28;20050;-62
2023/07/13 06:12:26;;;;;;;18.52;13.25;;;;;;;;;;4998277;28;20115;-63
2023/07/13 06:14:52;;;;;;;24.05;14.38;;;;;;;;;;4997677;28;20398;-63
2023/07/13 06:17:19;;;;;;;20.60;13.77;;;;;;;;;;4999565;28;20058;-61
2023/07/13 06:19:45;;;;;;;20.25;13.88;;;;;;;;;;4997409;28;20030;-62
2023/07/13 06:22:12;;;;;;;20.52;13.13;;;;;;;;;;4998279;28;20053;-61
2023/07/13 06:24:38;;;;;;;22.52;14.00;;;;;;;;;;4995154;28;20038;-63
2023/07/13 06:27:05;;;;;;;20.50;13.20;;;;;;;;;;4997927;28;20125;-62
2023/07/13 06:29:32;;;;;;;22.10;14.23;;;;;;;;;;4982412;28;20137;-61
2023/07/13 06:32:00;;;;;;;22.00;14.07;;;;;;;;;;4998698;28;20041;-63
2023/07/13 06:34:27;;;;;;;20.10;13.00;;;;;;;;;;4995896;28;20121;-62
2023/07/13 06:36:53;;;;;;;20.83;13.30;;;;;;;;;;4998801;28;20569;-61
2023/07/13 06:39:20;;;;;;;20.38;13.30;;;;;;;;;;4997812;28;21862;-63
2023/07/13 06:41:46;;;;;;;20.08;13.27;;;;;;;;;;4997265;28;20093;-63
2023/07/13 06:44:13;;;;;;;25.67;14.25;;;;;;;;;;4998472;28;20044;-62
2023/07/13 06:46:40;;;;;;;25.23;13.90;;;;;;;;;;4996543;28;20034;-63
2023/07/13 06:49:06;;;;;;;21.77;14.38;;;;;;;;;;4997470;28;20128;-62
2023/07/13 06:51:33;;;;;;;20.23;13.80;;;;;;;;;;4997199;28;20080;-61
2023/07/13 06:53:59;;;;;;;23.70;13.63;;;;;;;;;;4998310;28;20155;-63
2023/07/13 06:56:26;;;;;;;22.48;13.68;;;;;;;;;;4997939;28;20037;-62
2023/07/13 06:58:52;;;;;;;23.88;13.27;;;;;;;;;;4998726;28;20034;-64
2023/07/13 07:01:19;;;;;;;23.92;14.63;;;;;;;;;;4997151;28;20037;-64
2023/07/13 07:03:47;;;;;;;24.48;15.27;;;;;;;;;;4995502;28;20218;-62
2023/07/13 07:06:15;;;;;;;22.33;15.50;;;;;;;;;;4996882;28;20044;-62
2023/07/13 07:08:42;;;;;;;21.50;14.25;;;;;;;;;;4995772;28;20851;-62
2023/07/13 07:11:10;;;;;;;22.70;14.82;;;;;;;;;;4997123;28;20129;-64
2023/07/13 07:13:56;;;;;;;23.92;14.82;;;;;;;;;;4990910;28;20465;-61
2023/07/13 07:16:23;;;;;;;21.48;14.65;;;;;;;;;;4966728;28;20034;-64
2023/07/13 07:18:49;;;;;;;23.85;14.55;;;;;;;;;;4994016;28;20053;-63
2023/07/13 07:21:16;;;;;;;23.55;14.75;;;;;;;;;;4992903;28;20042;-62
2023/07/13 07:23:43;;;;;;;21.90;14.27;;;;;;;;;;4991228;28;20688;-61
2023/07/13 07:26:10;;;;;;;21.08;13.10;;;;;;;;;;4991133;28;20034;-64
2023/07/13 07:28:36;;;;;;;22.00;13.60;;;;;;;;;;4973220;28;20367;-63
2023/07/13 07:31:03;;;;;;;22.45;13.70;;;;;;;;;;4993355;28;20125;-62
2023/07/13 07:33:29;;;;;;;30.05;13.93;;;;;;;;;;4971683;28;20046;-64
2023/07/13 07:35:56;;;;;;;21.05;12.88;;;;;;;;;;4980146;28;20065;-61
2023/07/13 07:38:23;;;;;;;21.20;13.20;;;;;;;;;;4973883;28;20049;-66
2023/07/13 07:40:49;;;;;;;22.02;13.68;;;;;;;;;;4995545;28;21772;-63
2023/07/13 07:43:16;;;;;;;22.35;13.65;;;;;;;;;;4989689;28;20034;-66
2023/07/13 07:45:42;;;;;;;21.95;13.43;;;;;;;;;;4989643;28;20038;-63
2023/07/13 07:48:09;;;;;;;20.38;13.38;;;;;;;;;;4998742;28;20045;-64
2023/07/13 07:50:36;;;;;;;21.27;13.48;;;;;;;;;;4997266;28;20038;-62
2023/07/13 07:53:06;;;;;;;19.63;11.98;;;;;;;;;;4995081;28;20050;-64
2023/07/13 07:55:34;;;;;;;21.25;13.50;;;;;;;;;;4996617;28;20042;-64
2023/07/13 07:58:00;;;;;;;20.60;14.05;;;;;;;;;;4998899;28;20045;-64
2023/07/13 08:00:30;;;;;;;21.88;14.00;;;;;;;;;;4997281;28;20045;-64
2023/07/13 08:02:57;;;;;;;23.65;13.55;;;;;;;;;;4994876;28;21699;-66
2023/07/13 08:05:23;;;;;;;22.88;14.07;;;;;;;;;;4998593;28;20589;-65
2023/07/13 08:07:50;;;;;;;21.15;14.00;;;;;;;;;;5013255;28;20095;-63
2023/07/13 08:10:17;;;;;;;23.65;14.57;;;;;;;;;;4997569;28;20061;-63
2023/07/13 08:12:43;;;;;;;23.27;13.88;;;;;;;;;;4997419;28;20515;-63
2023/07/13 08:15:11;;;;;;;20.92;13.80;;;;;;;;;;4995923;28;20122;-64
2023/07/13 08:17:38;;;;;;;21.52;14.25;;;;;;;;;;4995747;28;20065;-63
2023/07/13 08:20:05;;;;;;;22.75;14.90;;;;;;;;;;4996011;28;20116;-64
2023/07/13 08:22:32;;;;;;;22.85;14.27;;;;;;;;;;4996119;28;20077;-63
2023/07/13 08:24:59;;;;;;;23.67;15.00;;;;;;;;;;4994473;28;20041;-64
2023/07/13 08:27:27;;;;;;;23.42;14.27;;;;;;;;;;4996037;28;20121;-64
2023/07/13 08:29:54;;;;;;;24.15;15.15;;;;;;;;;;4995875;28;20053;-63
2023/07/13 08:32:22;;;;;;;24.63;15.25;;;;;;;;;;4995870;28;20160;-65
2023/07/13 08:34:48;;;;;;;20.35;14.85;;;;;;;;;;4994009;28;20624;-65
2023/07/13 08:37:16;;;;;;;24.15;15.05;;;;;;;;;;4995765;28;20038;-63
2023/07/13 08:39:43;;;;;;;24.05;15.32;;;;;;;;;;4995072;28;20049;-63
2023/07/13 08:42:13;;;;;;;23.63;15.32;;;;;;;;;;4996997;28;20041;-63
2023/07/13 08:44:57;;;;;;;26.27;16.08;;;;;;;;;;4994092;28;20418;-64
2023/07/13 08:47:25;;;;;;;22.55;15.43;;;;;;;;;;4994758;28;20138;-64
2023/07/13 08:49:52;;;;;;;25.55;15.60;;;;;;;;;;4988180;28;20049;-64
2023/07/13 08:52:31;;;;;;;24.73;15.68;;;;;;;;;;4995881;28;20530;-63
2023/07/13 08:54:59;;;;;;;32.25;16.60;;;;;;;;;;4993483;28;20042;-65
2023/07/13 08:57:30;;;;;;;26.30;16.13;;;;;;;;;;4995566;28;20133;-64
2023/07/13 08:59:58;;;;;;;27.55;17.13;;;;;;;;;;4993433;28;20654;-63
2023/07/13 09:02:28;;;;;;;30.63;19.05;;;;;;;;;;4994401;28;20142;-64
2023/07/13 09:05:05;;;;;;;33.95;21.35;;;;;;;;;;4994813;28;20033;-64
2023/07/13 09:07:37;;;;;;;40.58;23.60;;;;;;;;;;4999611;28;20046;-61
2023/07/13 09:10:07;;;;;;;41.55;25.48;;;;;;;;;;4995971;28;20608;-64
2023/07/13 09:12:44;;;;;;;42.40;26.63;;;;;;;;;;5009652;28;20124;-64
2023/07/13 09:15:30;;;;;;;47.22;30.20;;;;;;;;;;4993896;28;20565;-64
2023/07/13 09:18:00;;;;;;;54.47;34.38;;;;;;;;;;4996414;28;20050;-62
2023/07/13 09:20:35;;;;;;;59.17;38.15;;;;;;;;;;4997482;28;20041;-63
2023/07/13 09:23:04;;;;;;;59.15;38.85;;;;;;;;;;4999609;28;20053;-62
2023/07/13 09:25:34;;;;;;;67.45;41.67;;;;;;;;;;4998753;28;20581;-61
2023/07/13 09:28:12;;;;;;;72.47;40.83;;;;;;;;;;4998770;28;20038;-61
2023/07/13 09:30:55;;;;;;;74.47;46.78;;;;;;;;;;4997716;28;20061;-63
2023/07/13 09:33:22;;;;;;;82.67;48.47;;;;;;;;;;4997944;28;20053;-61
2023/07/13 09:35:49;;;;;;;77.88;47.17;;;;;;;;;;4998575;28;20440;-61
2023/07/13 09:38:17;;;;;;;85.32;51.28;;;;;;;;;;4998415;28;20045;-63
2023/07/13 09:40:54;;;;;;;88.85;52.38;;;;;;;;;;4999134;28;20176;-62
2023/07/13 09:43:21;;;;;;;89.78;53.40;;;;;;;;;;4998074;28;20042;-61
2023/07/13 09:45:49;;;;;;;96.82;56.92;;;;;;;;;;4998509;28;20037;-61
2023/07/13 09:48:16;;;;;;;91.30;55.08;;;;;;;;;;4998972;28;20089;-63
2023/07/13 09:50:44;;;;;;;90.55;55.78;;;;;;;;;;5013015;28;20042;-63
2023/07/13 09:53:18;;;;;;;98.13;57.45;;;;;;;;;;4987815;28;20053;-61
2023/07/13 09:55:46;;;;;;;94.40;59.55;;;;;;;;;;4993992;28;20126;-63
2023/07/13 09:58:14;;;;;;;105.22;61.30;;;;;;;;;;4993732;28;20040;-60
2023/07/13 10:00:43;;;;;;;103.13;61.53;;;;;;;;;;4996409;28;20026;-61
2023/07/13 10:03:21;;;;;;;98.93;60.17;;;;;;;;;;4997454;28;20042;-63
2023/07/13 10:05:50;;;;;;;104.63;63.05;;;;;;;;;;5013202;28;20037;-64
2023/07/13 10:08:25;;;;;;;108.45;65.05;;;;;;;;;;5013853;28;20072;-64
2023/07/13 10:10:58;;;;;;;107.60;65.35;;;;;;;;;;4995868;28;20141;-63
2023/07/13 10:13:27;;;;;;;114.55;66.35;;;;;;;;;;4992381;28;20038;-64
2023/07/13 10:15:53;;;;;;;118.22;66.85;;;;;;;;;;5013560;28;20109;-62
2023/07/13 10:18:21;;;;;;;112.85;66.50;;;;;;;;;;5013590;28;20049;-64
2023/07/13 10:20:49;;;;;;;115.03;67.20;;;;;;;;;;4996769;28;20038;-61
2023/07/13 10:23:20;;;;;;;112.65;70.07;;;;;;;;;;5003528;28;20621;-63
2023/07/13 10:25:48;;;;;;;114.18;69.47;;;;;;;;;;4995537;28;20050;-62
2023/07/13 10:28:24;;;;;;;113.85;68.78;;;;;;;;;;4995533;28;20050;-64
2023/07/13 10:30:51;;;;;;;119.05;70.65;;;;;;;;;;4995995;28;20454;-62
2023/07/13 10:33:18;;;;;;;114.38;67.90;;;;;;;;;;4996110;28;20095;-66
2023/07/13 10:35:48;;;;;;;117.00;69.25;;;;;;;;;;4989107;28;21018;-64
2023/07/13 10:38:19;;;;;;;116.10;70.60;;;;;;;;;;4996262;28;20517;-63
2023/07/13 10:41:01;;;;;;;119.00;71.18;;;;;;;;;;5012450;28;20045;-63
2023/07/13 10:43:38;;;;;;;116.35;69.38;;;;;;;;;;5012300;28;20317;-63
2023/07/13 10:46:07;;;;;;;127.63;74.55;;;;;;;;;;4997676;28;20046;-63
2023/07/13 10:48:36;;;;;;;128.32;75.53;;;;;;;;;;4996975;28;20057;-65
2023/07/13 10:51:05;;;;;;;122.70;72.47;;;;;;;;;;4997975;28;20074;-62
2023/07/13 10:53:33;;;;;;;121.60;71.80;;;;;;;;;;4996847;28;20044;-62
2023/07/13 10:56:02;;;;;;;122.65;72.63;;;;;;;;;;4996859;28;20046;-62
2023/07/13 10:58:28;;;;;;;125.22;72.40;;;;;;;;;;4994502;28;20100;-64
2023/07/13 11:01:08;;;;;;;125.80;73.65;;;;;;;;;;4996726;28;20053;-63
2023/07/13 11:03:36;;;;;;;119.30;71.15;;;;;;;;;;4996269;28;20260;-64
2023/07/13 11:06:09;;;;;;;121.13;72.72;;;;;;;;;;4997851;28;20034;-63
2023/07/13 11:08:37;;;;;;;125.40;72.95;;;;;;;;;;4998251;28;20849;-64
2023/07/13 11:11:08;;;;;;;115.38;69.32;;;;;;;;;;4997811;28;20025;-64
2023/07/13 11:13:43;;;;;;;116.30;67.40;;;;;;;;;;4998534;28;20046;-62
2023/07/13 11:16:18;;;;;;;113.05;68.38;;;;;;;;;;4997365;28;20514;-64
2023/07/13 11:19:14;;;;;;;119.30;67.55;;;;;;;;;;4998023;28;20053;-62
2023/07/13 11:21:58;;;;;;;115.50;67.60;;;;;;;;;;5013460;28;20072;-62
2023/07/13 11:24:30;;;;;;;115.85;67.90;;;;;;;;;;4997314;28;20042;-62
2023/07/13 11:26:57;;;;;;;115.88;66.53;;;;;;;;;;4992268;28;20129;-63
2023/07/13 11:29:23;;;;;;;117.28;69.53;;;;;;;;;;4996515;28;20077;-63
2023/07/13 11:31:54;;;;;;;114.40;66.80;;;;;;;;;;4997289;28;20172;-65
2023/07/13 11:34:28;;;;;;;110.53;62.50;;;;;;;;;;4998264;28;20037;-63
2023/07/13 11:36:54;;;;;;;107.50;61.55;;;;;;;;;;4998078;28;20050;-62
2023/07/13 11:39:25;;;;;;;110.30;64.47;;;;;;;;;;4996450;28;20038;-63
2023/07/13 11:41:57;;;;;;;106.82;62.67;;;;;;;;;;5006029;28;20042;-64
2023/07/13 11:44:25;;;;;;;112.10;64.53;;;;;;;;;;5012288;28;20041;-62
2023/07/13 11:46:54;;;;;;;111.38;63.78;;;;;;;;;;4998309;28;20048;-62
2023/07/13 11:49:21;;;;;;;113.75;65.88;;;;;;;;;;4997669;28;20135;-62
2023/07/13 11:51:53;;;;;;;105.63;62.08;;;;;;;;;;4995769;28;21927;-62
2023/07/13 11:54:45;;;;;;;107.55;63.38;;;;;;;;;;4996813;28;20034;-64
2023/07/13 11:57:24;;;;;;;101.55;59.03;;;;;;;;;;4996379;28;20125;-66
2023/07/13 11:59:53;;;;;;;105.75;63.13;;;;;;;;;;4996434;28;20038;-63
2023/07/13 12:02:30;;;;;;;105.95;62.25;;;;;;;;;;4985113;28;20072;-63
2023/07/13 12:04:57;;;;;;;109.05;61.25;;;;;;;;;;4996284;28;20033;-63
2023/07/13 12:07:24;;;;;;;109.05;62.40;;;;;;;;;;4994944;28;20033;-59
2023/07/13 12:09:50;;;;;;;109.43;63.67;;;;;;;;;;4994865;28;20525;-59
2023/07/13 12:12:22;;;;;;;101.57;59.72;;;;;;;;;;4996774;28;20084;-60
2023/07/13 12:14:52;;;;;;;108.55;61.40;;;;;;;;;;5009816;28;20065;-61
2023/07/13 12:17:22;;;;;;;106.82;60.67;;;;;;;;;;4995248;28;20058;-64
2023/07/13 12:19:49;;;;;;;104.35;60.72;;;;;;;;;;4984754;28;20037;-63
2023/07/13 12:22:17;;;;;;;105.72;62.28;;;;;;;;;;4989468;28;20037;-62
2023/07/13 12:24:44;;;;;;;110.38;64.47;;;;;;;;;;4995368;28;20065;-62
2023/07/13 12:27:19;;;;;;;105.10;62.13;;;;;;;;;;4996673;28;20049;-60
2023/07/13 12:29:54;;;;;;;109.00;62.80;;;;;;;;;;4994075;28;20038;-62
2023/07/13 12:32:21;;;;;;;106.55;63.13;;;;;;;;;;4995320;28;20165;-63
2023/07/13 12:35:06;;;;;;;106.22;63.25;;;;;;;;;;4995523;28;20045;-62
2023/07/13 12:37:35;;;;;;;105.50;61.92;;;;;;;;;;4989218;28;20402;-64
2023/07/13 12:40:04;;;;;;;109.47;64.20;;;;;;;;;;4996916;28;20113;-62
2023/07/13 12:42:34;;;;;;;109.50;64.20;;;;;;;;;;5010708;28;20129;-64
2023/07/13 12:45:04;;;;;;;110.35;64.68;;;;;;;;;;4996019;28;20046;-63
2023/07/13 12:47:31;;;;;;;113.85;65.97;;;;;;;;;;5004715;28;20041;-63
2023/07/13 12:50:01;;;;;;;114.03;64.20;;;;;;;;;;5007945;28;20062;-64
2023/07/13 12:52:35;;;;;;;105.45;62.90;;;;;;;;;;4999451;28;21844;-62
2023/07/13 12:55:14;;;;;;;108.35;63.58;;;;;;;;;;5000633;28;20046;-62
2023/07/13 12:57:46;;;;;;;105.30;61.80;;;;;;;;;;5000224;28;20041;-63
2023/07/13 13:00:33;;;;;;;109.25;65.38;;;;;;;;;;5000021;28;20788;-62
2023/07/13 13:03:04;;;;;;;109.20;64.10;;;;;;;;;;4998666;28;20494;-64
2023/07/13 13:05:31;;;;;;;105.00;63.53;;;;;;;;;;4999246;28;20038;-65
2023/07/13 13:07:58;;;;;;;104.55;62.25;;;;;;;;;;4998609;28;20076;-65
2023/07/13 13:10:26;;;;;;;107.57;64.63;;;;;;;;;;4999038;28;20477;-62
2023/07/13 13:12:53;;;;;;;107.00;63.95;;;;;;;;;;4997938;28;20124;-62
2023/07/13 13:15:21;;;;;;;112.45;65.95;;;;;;;;;;4997674;28;20034;-63
2023/07/13 13:17:47;;;;;;;108.38;64.47;;;;;;;;;;4997117;28;20507;-64
2023/07/13 13:20:16;;;;;;;107.80;63.10;;;;;;;;;;4993000;28;20141;-63
2023/07/13 13:22:42;;;;;;;111.13;64.15;;;;;;;;;;4997278;28;20034;-63
2023/07/13 13:25:15;;;;;;;107.40;63.42;;;;;;;;;;5010603;28;20434;-64
2023/07/13 13:27:43;;;;;;;113.03;65.80;;;;;;;;;;5013284;28;20064;-63
2023/07/13 13:30:14;;;;;;;107.53;63.65;;;;;;;;;;4997808;28;20066;-62
2023/07/13 13:32:44;;;;;;;107.05;62.95;;;;;;;;;;4997098;28;20084;-65
2023/07/13 13:35:19;;;;;;;108.45;64.20;;;;;;;;;;4997275;28;20052;-64
2023/07/13 13:37:50;;;;;;;112.63;65.18;;;;;;;;;;4997195;28;20033;-64
2023/07/13 13:40:21;;;;;;;110.43;64.13;;;;;;;;;;4997384;28;20042;-63
2023/07/13 13:42:47;;;;;;;110.20;65.43;;;;;;;;;;5002502;28;20071;-63
2023/07/13 13:45:15;;;;;;;106.93;64.38;;;;;;;;;;4991078;28;20038;-60
2023/07/13 13:47:42;;;;;;;108.25;65.65;;;;;;;;;;4997509;28;20046;-60
2023/07/13 13:50:14;;;;;;;112.97;64.90;;;;;;;;;;5001579;28;20050;-59
2023/07/13 13:52:41;;;;;;;111.50;64.22;;;;;;;;;;4999034;28;20041;-59
2023/07/13 13:55:18;;;;;;;102.47;62.13;;;;;;;;;;4995388;28;20038;-61
2023/07/13 13:57:48;;;;;;;100.25;59.45;;;;;;;;;;4994798;28;20126;-60
2023/07/13 14:00:16;;;;;;;101.22;61.22;;;;;;;;;;4998184;28;20041;-59
2023/07/13 14:02:54;;;;;;;105.78;62.72;;;;;;;;;;4995723;28;20057;-61
2023/07/13 14:05:29;;;;;;;102.80;59.63;;;;;;;;;;4998543;28;20132;-60
2023/07/13 14:07:56;;;;;;;101.35;61.05;;;;;;;;;;4997731;28;20034;-60
2023/07/13 14:10:23;;;;;;;95.65;57.85;;;;;;;;;;4997332;28;20775;-61
2023/07/13 14:12:54;;;;;;;98.15;59.63;;;;;;;;;;5000928;28;20045;-60
2023/07/13 14:15:23;;;;;;;97.00;58.47;;;;;;;;;;4999524;28;20109;-59
2023/07/13 14:17:50;;;;;;;98.03;59.55;;;;;;;;;;4999379;28;20046;-61
2023/07/13 14:20:17;;;;;;;100.43;58.80;;;;;;;;;;5016875;28;20133;-63
2023/07/13 14:22:44;;;;;;;91.85;56.42;;;;;;;;;;4997375;28;20562;-63